Time,TemperatureF,DewpointF,PressureIn,WindDirection,WindDirectionDegrees,WindSpeedMPH,WindSpeedGustMPH,Humidity,HourlyPrecipIn,Conditions,Clouds,dailyrainin,SoftwareType,DateUTC
2013-08-20 00:10:00,52.2,48.0,29.89,South,176,0.0,-999.0,86,-99.99,,,0.00,weatherlink.com 1.10,2013-08-20 06:10:00,
2013-08-20 00:25:00,51.9,48.0,29.89,South,182,0.0,-999.0,86,-99.99,,,0.00,weatherlink.com 1.10,2013-08-20 06:25:00,
2013-08-20 00:56:00,51.0,47.0,29.91,SSE,168,2.0,-999.0,86,-99.99,,,0.00,weatherlink.com 1.10,2013-08-20 06:56:00,
2013-08-20 01:11:00,50.8,47.0,29.90,South,171,0.0,-999.0,86,-99.99,,,0.00,weatherlink.com 1.10,2013-08-20 07:11:00,
2013-08-20 01:26:00,50.4,47.0,29.90,South,171,0.0,-999.0,87,-99.99,,,0.00,weatherlink.com 1.10,2013-08-20 07:26:00,
2013-08-20 01:41:00,50.1,46.0,29.89,South,173,0.0,-999.0,86,-99.99,,,0.00,weatherlink.com 1.10,2013-08-20 07:41:00,
2013-08-20 01:57:00,49.8,46.0,29.89,South,179,0.0,-999.0,85,-99.99,,,0.00,weatherlink.com 1.10,2013-08-20 07:57:00,
2013-08-20 02:14:00,49.5,46.0,29.89,South,182,0.0,-999.0,86,-99.99,,,0.00,weatherlink.com 1.10,2013-08-20 08:14:00,
2013-08-20 02:27:00,48.9,45.0,29.87,SSE,157,0.0,-999.0,86,-99.99,,,0.00,weatherlink.com 1.10,2013-08-20 08:27:00,
2013-08-20 02:42:00,48.8,45.0,29.87,SE,131,0.0,-999.0,87,-99.99,,,0.00,weatherlink.com 1.10,2013-08-20 08:42:00,
2013-08-20 02:59:00,48.5,44.0,29.86,South,176,0.0,-999.0,85,-99.99,,,0.00,weatherlink.com 1.10,2013-08-20 08:59:00,
2013-08-20 03:14:00,48.2,44.0,29.86,SSE,168,0.0,-999.0,86,-99.99,,,0.00,weatherlink.com 1.10,2013-08-20 09:14:00,
2013-08-20 03:29:00,48.0,44.0,29.86,SE,141,0.0,-999.0,86,-99.99,,,0.00,weatherlink.com 1.10,2013-08-20 09:29:00,
2013-08-20 03:44:00,48.3,44.0,29.87,South,172,0.0,-999.0,85,-99.99,,,0.00,weatherlink.com 1.10,2013-08-20 09:44:00,
2013-08-20 03:59:00,47.7,43.0,29.87,South,169,0.0,-999.0,84,-99.99,,,0.00,weatherlink.com 1.10,2013-08-20 09:59:00,
2013-08-20 04:14:00,47.4,43.0,29.87,South,169,0.0,-999.0,85,-99.99,,,0.00,weatherlink.com 1.10,2013-08-20 10:14:00,
2013-08-20 04:29:00,47.0,43.0,29.90,South,169,0.0,-999.0,86,-99.99,,,0.00,weatherlink.com 1.10,2013-08-20 10:29:00,
2013-08-20 04:44:00,47.0,43.0,29.90,South,176,0.0,-999.0,85,-99.99,,,0.00,weatherlink.com 1.10,2013-08-20 10:44:00,
2013-08-20 05:00:00,46.4,43.0,29.92,SSE,161,0.0,-999.0,87,-99.99,,,0.00,weatherlink.com 1.10,2013-08-20 11:00:00,
2013-08-20 05:15:00,46.0,42.0,29.93,SE,135,0.0,-999.0,87,-99.99,,,0.00,weatherlink.com 1.10,2013-08-20 11:15:00,
2013-08-20 05:30:00,47.0,43.0,29.92,SSE,161,0.0,-999.0,87,-99.99,,,0.00,weatherlink.com 1.10,2013-08-20 11:30:00,
2013-08-20 05:45:00,47.0,43.0,29.92,SSE,161,0.0,-999.0,85,-99.99,,,0.00,weatherlink.com 1.10,2013-08-20 11:45:00,
2013-08-20 06:01:00,46.2,42.0,29.93,SSE,161,0.0,-999.0,85,-99.99,,,0.00,weatherlink.com 1.10,2013-08-20 12:01:00,
2013-08-20 06:31:00,44.9,42.0,29.97,SSE,161,0.0,-999.0,89,-99.99,,,0.00,weatherlink.com 1.10,2013-08-20 12:31:00,
2013-08-20 06:46:00,45.5,42.0,29.97,SSE,161,0.0,-999.0,88,-99.99,,,0.00,weatherlink.com 1.10,2013-08-20 12:46:00,
2013-08-20 07:01:00,46.2,43.0,29.98,SSE,162,0.0,-999.0,87,-99.99,,,0.00,weatherlink.com 1.10,2013-08-20 13:01:00,
2013-08-20 07:17:00,46.5,43.0,30.12,South,180,2.0,-999.0,86,-99.99,,,0.00,weatherlink.com 1.10,2013-08-20 13:17:00,
2013-08-20 07:32:00,46.2,42.0,30.12,SSE,163,0.0,-999.0,86,-99.99,,,0.00,weatherlink.com 1.10,2013-08-20 13:32:00,
2013-08-20 07:47:00,47.4,43.0,30.11,SSE,163,0.0,-999.0,86,-99.99,,,0.00,weatherlink.com 1.10,2013-08-20 13:47:00,
2013-08-20 08:02:00,48.3,44.0,30.10,SSE,161,0.0,-999.0,85,-99.99,,,0.00,weatherlink.com 1.10,2013-08-20 14:02:00,
2013-08-20 08:19:00,49.8,45.0,30.09,SSE,161,0.0,-999.0,84,-99.99,,,0.00,weatherlink.com 1.10,2013-08-20 14:19:00,
2013-08-20 08:34:00,52.3,46.0,30.07,SSE,161,0.0,-999.0,80,-99.99,,,0.00,weatherlink.com 1.10,2013-08-20 14:34:00,
2013-08-20 09:05:00,54.2,45.0,30.03,SSE,161,0.0,-999.0,72,-99.99,,,0.00,weatherlink.com 1.10,2013-08-20 15:05:00,
2013-08-20 09:19:00,55.9,46.0,30.03,SSE,161,0.0,-999.0,70,-99.99,,,0.00,weatherlink.com 1.10,2013-08-20 15:19:00,
2013-08-20 09:34:00,57.5,45.0,30.01,SSE,161,0.0,-999.0,64,-99.99,,,0.00,weatherlink.com 1.10,2013-08-20 15:34:00,
2013-08-20 09:49:00,59.0,46.0,29.99,SSE,161,0.0,-999.0,63,-99.99,,,0.00,weatherlink.com 1.10,2013-08-20 15:49:00,
2013-08-20 10:20:00,62.9,50.0,29.94,SSE,161,0.0,-999.0,62,-99.99,,,0.00,weatherlink.com 1.10,2013-08-20 16:20:00,
2013-08-20 10:35:00,64.5,48.0,29.92,SSE,150,0.0,-999.0,55,-99.99,,,0.00,weatherlink.com 1.10,2013-08-20 16:35:00,
2013-08-20 10:50:00,66.8,49.0,29.90,SSE,150,0.0,-999.0,53,-99.99,,,0.00,weatherlink.com 1.10,2013-08-20 16:50:00,
2013-08-20 11:05:00,68.9,47.0,29.87,SSE,150,0.0,-999.0,45,-99.99,,,0.00,weatherlink.com 1.10,2013-08-20 17:05:00,
2013-08-20 11:21:00,70.6,49.0,29.87,ESE,120,0.0,-999.0,46,-99.99,,,0.00,weatherlink.com 1.10,2013-08-20 17:21:00,
2013-08-20 11:36:00,72.3,49.0,29.84,NE,42,0.0,-999.0,44,-99.99,,,0.00,weatherlink.com 1.10,2013-08-20 17:36:00,
2013-08-20 11:51:00,73.0,48.0,29.83,North,5,0.0,-999.0,41,-99.99,,,0.00,weatherlink.com 1.10,2013-08-20 17:51:00,
2013-08-20 12:06:00,72.7,49.0,29.83,NE,44,2.0,-999.0,44,-99.99,,,0.00,weatherlink.com 1.10,2013-08-20 18:06:00,
2013-08-20 12:22:00,71.5,44.0,29.84,NE,44,0.0,-999.0,37,-99.99,,,0.00,weatherlink.com 1.10,2013-08-20 18:22:00,
2013-08-20 12:37:00,70.9,47.0,29.85,NE,44,1.0,-999.0,42,-99.99,,,0.00,weatherlink.com 1.10,2013-08-20 18:37:00,
2013-08-20 12:52:00,70.4,44.0,29.85,NW,322,0.0,-999.0,39,-99.99,,,0.00,weatherlink.com 1.10,2013-08-20 18:52:00,
2013-08-20 13:07:00,69.4,48.0,29.85,South,169,0.0,-999.0,46,-99.99,,,0.00,weatherlink.com 1.10,2013-08-20 19:07:00,
2013-08-20 13:22:00,68.8,49.0,29.88,ESE,121,0.0,-999.0,49,-99.99,,,0.00,weatherlink.com 1.10,2013-08-20 19:22:00,
2013-08-20 13:39:00,66.8,43.0,29.89,East,82,0.0,-999.0,43,-99.99,,,0.00,weatherlink.com 1.10,2013-08-20 19:39:00,
2013-08-20 13:54:00,65.2,41.0,29.94,ENE,64,15.0,-999.0,42,-99.99,,,0.01,weatherlink.com 1.10,2013-08-20 19:54:00,
2013-08-20 14:09:00,64.7,43.0,29.93,NNE,13,0.0,-999.0,45,-99.99,,,0.01,weatherlink.com 1.10,2013-08-20 20:09:00,
2013-08-20 14:24:00,66.3,44.0,29.92,NNE,13,0.0,-999.0,45,-99.99,,,0.01,weatherlink.com 1.10,2013-08-20 20:24:00,
2013-08-20 14:39:00,65.5,53.0,29.89,WNW,293,0.0,-999.0,64,-99.99,,,0.01,weatherlink.com 1.10,2013-08-20 20:39:00,
2013-08-20 14:54:00,65.8,46.0,29.91,South,170,2.0,-999.0,49,-99.99,,,0.01,weatherlink.com 1.10,2013-08-20 20:54:00,
2013-08-20 15:09:00,65.8,46.0,29.92,South,178,0.0,-999.0,49,-99.99,,,0.01,weatherlink.com 1.10,2013-08-20 21:09:00,
2013-08-20 15:24:00,66.8,48.0,29.90,SW,230,0.0,-999.0,51,-99.99,,,0.01,weatherlink.com 1.10,2013-08-20 21:24:00,
2013-08-20 15:39:00,65.0,47.0,29.89,South,169,0.0,-999.0,53,-99.99,,,0.01,weatherlink.com 1.10,2013-08-20 21:39:00,
2013-08-20 15:54:00,63.9,49.0,29.92,South,183,3.0,-999.0,59,-99.99,,,0.01,weatherlink.com 1.10,2013-08-20 21:54:00,
2013-08-20 16:10:00,63.9,46.0,29.91,South,175,0.0,-999.0,53,-99.99,,,0.01,weatherlink.com 1.10,2013-08-20 22:10:00,
2013-08-20 16:25:00,63.7,47.0,29.94,South,177,0.0,-999.0,55,-99.99,,,0.01,weatherlink.com 1.10,2013-08-20 22:25:00,
2013-08-20 16:40:00,64.0,48.0,29.95,SSE,163,0.0,-999.0,56,-99.99,,,0.01,weatherlink.com 1.10,2013-08-20 22:40:00,
2013-08-20 16:55:00,65.2,48.0,29.94,SW,235,0.0,-999.0,54,-99.99,,,0.01,weatherlink.com 1.10,2013-08-20 22:55:00,
2013-08-20 17:11:00,67.6,48.0,29.90,SW,235,0.0,-999.0,49,-99.99,,,0.01,weatherlink.com 1.10,2013-08-20 23:11:00,
2013-08-20 17:26:00,69.3,46.0,29.89,WSW,251,2.0,-999.0,43,-99.99,,,0.01,weatherlink.com 1.10,2013-08-20 23:26:00,
2013-08-20 17:41:00,68.8,47.0,29.89,WSW,244,0.0,-999.0,46,-99.99,,,0.01,weatherlink.com 1.10,2013-08-20 23:41:00,
2013-08-20 17:56:00,67.6,49.0,29.88,WSW,244,0.0,-999.0,51,-99.99,,,0.01,weatherlink.com 1.10,2013-08-20 23:56:00,
2013-08-20 18:11:00,65.8,50.0,29.89,WSW,244,0.0,-999.0,58,-99.99,,,0.01,weatherlink.com 1.10,2013-08-21 00:11:00,
2013-08-20 18:27:00,65.3,50.0,29.89,WSW,244,0.0,-999.0,58,-99.99,,,0.01,weatherlink.com 1.10,2013-08-21 00:27:00,
2013-08-20 18:42:00,65.3,49.0,29.90,WSW,244,0.0,-999.0,57,-99.99,,,0.01,weatherlink.com 1.10,2013-08-21 00:42:00,
2013-08-20 18:57:00,63.9,50.0,29.91,WSW,244,0.0,-999.0,62,-99.99,,,0.01,weatherlink.com 1.10,2013-08-21 00:57:00,
2013-08-20 19:12:00,62.4,50.0,29.92,SSE,167,0.0,-999.0,65,-99.99,,,0.01,weatherlink.com 1.10,2013-08-21 01:12:00,
2013-08-20 19:29:00,62.0,50.0,29.93,SSE,167,0.0,-999.0,65,-99.99,,,0.01,weatherlink.com 1.10,2013-08-21 01:29:00,
2013-08-20 19:44:00,61.3,50.0,29.93,SSE,167,0.0,-999.0,66,-99.99,,,0.01,weatherlink.com 1.10,2013-08-21 01:44:00,
2013-08-20 19:59:00,60.9,49.0,29.95,SSE,167,0.0,-999.0,64,-99.99,,,0.01,weatherlink.com 1.10,2013-08-21 01:59:00,
2013-08-20 20:14:00,60.1,49.0,29.96,SSE,167,0.0,-999.0,66,-99.99,,,0.01,weatherlink.com 1.10,2013-08-21 02:14:00,
2013-08-20 20:29:00,59.3,48.0,29.92,SSE,167,0.0,-999.0,66,-99.99,,,0.01,weatherlink.com 1.10,2013-08-21 02:29:00,
2013-08-20 20:44:00,59.3,47.0,29.95,SSE,167,0.0,-999.0,65,-99.99,,,0.01,weatherlink.com 1.10,2013-08-21 02:44:00,
2013-08-20 20:59:00,59.0,49.0,29.95,SSE,167,0.0,-999.0,70,-99.99,,,0.01,weatherlink.com 1.10,2013-08-21 02:59:00,
2013-08-20 21:14:00,57.6,48.0,29.94,SSE,155,3.0,-999.0,70,-99.99,,,0.01,weatherlink.com 1.10,2013-08-21 03:14:00,
2013-08-20 21:29:00,57.8,48.0,29.91,SSE,155,0.0,-999.0,69,-99.99,,,0.01,weatherlink.com 1.10,2013-08-21 03:29:00,
2013-08-20 21:44:00,57.2,47.0,29.93,SSE,155,0.0,-999.0,68,-99.99,,,0.01,weatherlink.com 1.10,2013-08-21 03:44:00,
2013-08-20 22:00:00,57.2,47.0,29.95,SSE,155,0.0,-999.0,68,-99.99,,,0.01,weatherlink.com 1.10,2013-08-21 04:00:00,
2013-08-20 22:15:00,56.6,46.0,29.87,South,174,1.0,-999.0,68,-99.99,,,0.01,weatherlink.com 1.10,2013-08-21 04:15:00,
2013-08-20 22:30:00,55.9,46.0,29.87,South,174,0.0,-999.0,69,-99.99,,,0.01,weatherlink.com 1.10,2013-08-21 04:30:00,
2013-08-20 22:45:00,56.2,46.0,29.87,SSE,156,0.0,-999.0,68,-99.99,,,0.01,weatherlink.com 1.10,2013-08-21 04:45:00,
2013-08-20 23:01:00,55.7,45.0,29.87,SSE,166,2.0,-999.0,67,-99.99,,,0.01,weatherlink.com 1.10,2013-08-21 05:01:00,
2013-08-20 23:16:00,54.8,45.0,29.84,SSE,166,0.0,-999.0,69,-99.99,,,0.01,weatherlink.com 1.10,2013-08-21 05:16:00,
2013-08-20 23:31:00,54.7,44.0,29.84,South,176,0.0,-999.0,68,-99.99,,,0.01,weatherlink.com 1.10,2013-08-21 05:31:00,
2013-08-20 23:46:00,55.0,44.0,29.84,SSE,164,0.0,-999.0,67,-99.99,,,0.01,weatherlink.com 1.10,2013-08-21 05:46:00,